sensor_id;sensor_type;location;lat;lon;timestamp;P1;durP1;ratioP1;P2;durP2;ratioP2
19339;SDS011;9804;52.350;6.684;2024-03-02T00:00:10;2.90;;;2.20;;
19339;SDS011;9804;52.350;6.684;2024-03-02T00:02:44;4.65;;;2.33;;
19339;SDS011;9804;52.350;6.684;2024-03-02T00:05:17;3.72;;;2.15;;
19339;SDS011;9804;52.350;6.684;2024-03-02T00:07:44;3.88;;;2.30;;
19339;SDS011;9804;52.350;6.684;2024-03-02T00:10:11;4.65;;;2.13;;
19339;SDS011;9804;52.350;6.684;2024-03-02T00:12:41;3.03;;;1.88;;
19339;SDS011;9804;52.350;6.684;2024-03-02T00:15:23;3.90;;;1.98;;
19339;SDS011;9804;52.350;6.684;2024-03-02T00:18:11;4.43;;;1.80;;
19339;SDS011;9804;52.350;6.684;2024-03-02T00:20:39;4.05;;;2.67;;
19339;SDS011;9804;52.350;6.684;2024-03-02T00:23:06;3.80;;;1.95;;
19339;SDS011;9804;52.350;6.684;2024-03-02T00:25:43;2.53;;;2.03;;
19339;SDS011;9804;52.350;6.684;2024-03-02T00:28:22;4.90;;;2.10;;
19339;SDS011;9804;52.350;6.684;2024-03-02T00:33:25;3.00;;;1.90;;
19339;SDS011;9804;52.350;6.684;2024-03-02T00:35:53;3.25;;;1.92;;
19339;SDS011;9804;52.350;6.684;2024-03-02T00:38:18;7.43;;;2.00;;
19339;SDS011;9804;52.350;6.684;2024-03-02T00:40:44;5.05;;;1.90;;
19339;SDS011;9804;52.350;6.684;2024-03-02T00:45:58;2.53;;;1.80;;
19339;SDS011;9804;52.350;6.684;2024-03-02T00:48:23;2.88;;;2.03;;
19339;SDS011;9804;52.350;6.684;2024-03-02T00:50:52;2.35;;;1.60;;
19339;SDS011;9804;52.350;6.684;2024-03-02T00:53:18;3.63;;;1.80;;
19339;SDS011;9804;52.350;6.684;2024-03-02T00:55:52;3.25;;;1.85;;
19339;SDS011;9804;52.350;6.684;2024-03-02T00:58:18;2.60;;;1.70;;
19339;SDS011;9804;52.350;6.684;2024-03-02T01:00:43;3.20;;;1.80;;
19339;SDS011;9804;52.350;6.684;2024-03-02T01:03:09;3.47;;;2.05;;
19339;SDS011;9804;52.350;6.684;2024-03-02T01:05:35;4.57;;;2.00;;
19339;SDS011;9804;52.350;6.684;2024-03-02T01:08:01;2.83;;;1.73;;
19339;SDS011;9804;52.350;6.684;2024-03-02T01:10:27;3.33;;;1.80;;
19339;SDS011;9804;52.350;6.684;2024-03-02T01:12:53;2.53;;;1.70;;
19339;SDS011;9804;52.350;6.684;2024-03-02T01:15:18;2.35;;;1.85;;
19339;SDS011;9804;52.350;6.684;2024-03-02T01:17:44;4.82;;;1.95;;
19339;SDS011;9804;52.350;6.684;2024-03-02T01:20:10;3.95;;;1.83;;
19339;SDS011;9804;52.350;6.684;2024-03-02T01:22:36;4.85;;;1.60;;
19339;SDS011;9804;52.350;6.684;2024-03-02T01:25:02;4.90;;;1.98;;
19339;SDS011;9804;52.350;6.684;2024-03-02T01:27:28;4.30;;;1.92;;
19339;SDS011;9804;52.350;6.684;2024-03-02T01:29:54;3.47;;;1.88;;
19339;SDS011;9804;52.350;6.684;2024-03-02T01:32:19;2.85;;;1.85;;
19339;SDS011;9804;52.350;6.684;2024-03-02T01:34:45;2.83;;;1.92;;
19339;SDS011;9804;52.350;6.684;2024-03-02T01:37:11;3.50;;;2.17;;
19339;SDS011;9804;52.350;6.684;2024-03-02T01:39:36;4.40;;;1.60;;
19339;SDS011;9804;52.350;6.684;2024-03-02T01:42:02;3.70;;;2.33;;
19339;SDS011;9804;52.350;6.684;2024-03-02T01:44:27;2.40;;;2.00;;
19339;SDS011;9804;52.350;6.684;2024-03-02T01:46:53;2.50;;;2.25;;
19339;SDS011;9804;52.350;6.684;2024-03-02T01:49:18;3.55;;;2.03;;
19339;SDS011;9804;52.350;6.684;2024-03-02T01:51:44;2.97;;;2.17;;
19339;SDS011;9804;52.350;6.684;2024-03-02T01:54:09;3.17;;;1.92;;
19339;SDS011;9804;52.350;6.684;2024-03-02T01:56:35;3.00;;;1.90;;
19339;SDS011;9804;52.350;6.684;2024-03-02T01:59:01;3.70;;;1.90;;
19339;SDS011;9804;52.350;6.684;2024-03-02T02:01:26;2.58;;;1.85;;
19339;SDS011;9804;52.350;6.684;2024-03-02T02:03:52;2.45;;;1.73;;
19339;SDS011;9804;52.350;6.684;2024-03-02T02:06:17;2.10;;;1.83;;
19339;SDS011;9804;52.350;6.684;2024-03-02T02:08:43;3.65;;;2.00;;
19339;SDS011;9804;52.350;6.684;2024-03-02T02:11:08;2.35;;;1.80;;
19339;SDS011;9804;52.350;6.684;2024-03-02T02:13:34;4.45;;;2.22;;
19339;SDS011;9804;52.350;6.684;2024-03-02T02:16:07;3.58;;;1.80;;
19339;SDS011;9804;52.350;6.684;2024-03-02T02:18:33;4.00;;;2.08;;
19339;SDS011;9804;52.350;6.684;2024-03-02T02:20:59;3.55;;;1.70;;
19339;SDS011;9804;52.350;6.684;2024-03-02T02:23:24;3.58;;;1.75;;
19339;SDS011;9804;52.350;6.684;2024-03-02T02:25:50;7.53;;;1.80;;
19339;SDS011;9804;52.350;6.684;2024-03-02T02:28:15;2.63;;;1.77;;
19339;SDS011;9804;52.350;6.684;2024-03-02T02:30:41;3.58;;;1.90;;
19339;SDS011;9804;52.350;6.684;2024-03-02T02:33:06;2.65;;;1.77;;
19339;SDS011;9804;52.350;6.684;2024-03-02T02:35:31;4.93;;;1.83;;
19339;SDS011;9804;52.350;6.684;2024-03-02T02:37:57;4.40;;;2.20;;
19339;SDS011;9804;52.350;6.684;2024-03-02T02:40:26;3.20;;;1.80;;
19339;SDS011;9804;52.350;6.684;2024-03-02T02:42:52;5.95;;;1.95;;
19339;SDS011;9804;52.350;6.684;2024-03-02T02:45:17;3.53;;;1.80;;
19339;SDS011;9804;52.350;6.684;2024-03-02T02:47:43;2.22;;;1.83;;
19339;SDS011;9804;52.350;6.684;2024-03-02T02:50:10;4.00;;;1.98;;
19339;SDS011;9804;52.350;6.684;2024-03-02T02:52:36;7.00;;;2.15;;
19339;SDS011;9804;52.350;6.684;2024-03-02T02:55:04;3.28;;;1.70;;
19339;SDS011;9804;52.350;6.684;2024-03-02T02:57:32;3.30;;;1.77;;
19339;SDS011;9804;52.350;6.684;2024-03-02T03:00:07;4.40;;;2.00;;
19339;SDS011;9804;52.350;6.684;2024-03-02T03:02:43;3.90;;;2.10;;
19339;SDS011;9804;52.350;6.684;2024-03-02T03:05:10;2.03;;;1.77;;
19339;SDS011;9804;52.350;6.684;2024-03-02T03:07:37;2.78;;;1.67;;
19339;SDS011;9804;52.350;6.684;2024-03-02T03:10:04;2.20;;;1.52;;
19339;SDS011;9804;52.350;6.684;2024-03-02T03:12:31;4.00;;;2.10;;
19339;SDS011;9804;52.350;6.684;2024-03-02T03:14:57;2.83;;;1.77;;
19339;SDS011;9804;52.350;6.684;2024-03-02T03:17:23;3.65;;;1.88;;
19339;SDS011;9804;52.350;6.684;2024-03-02T03:19:49;3.53;;;1.90;;
19339;SDS011;9804;52.350;6.684;2024-03-02T03:22:15;2.17;;;1.73;;
19339;SDS011;9804;52.350;6.684;2024-03-02T03:24:40;2.60;;;1.70;;
19339;SDS011;9804;52.350;6.684;2024-03-02T03:27:06;3.72;;;1.92;;
19339;SDS011;9804;52.350;6.684;2024-03-02T03:29:31;3.05;;;1.88;;
19339;SDS011;9804;52.350;6.684;2024-03-02T03:31:57;3.00;;;1.88;;
19339;SDS011;9804;52.350;6.684;2024-03-02T03:34:23;2.90;;;2.00;;
19339;SDS011;9804;52.350;6.684;2024-03-02T03:36:48;3.50;;;2.10;;
19339;SDS011;9804;52.350;6.684;2024-03-02T03:39:13;3.40;;;2.00;;
19339;SDS011;9804;52.350;6.684;2024-03-02T03:41:40;3.35;;;2.13;;
19339;SDS011;9804;52.350;6.684;2024-03-02T03:44:06;4.10;;;1.98;;
19339;SDS011;9804;52.350;6.684;2024-03-02T03:46:31;3.15;;;1.95;;
19339;SDS011;9804;52.350;6.684;2024-03-02T03:48:56;2.88;;;1.90;;
19339;SDS011;9804;52.350;6.684;2024-03-02T03:51:22;6.43;;;2.47;;
19339;SDS011;9804;52.350;6.684;2024-03-02T03:53:50;3.33;;;2.20;;
19339;SDS011;9804;52.350;6.684;2024-03-02T03:56:16;2.47;;;1.88;;
19339;SDS011;9804;52.350;6.684;2024-03-02T03:58:41;4.43;;;2.05;;
19339;SDS011;9804;52.350;6.684;2024-03-02T04:01:06;6.13;;;2.17;;
19339;SDS011;9804;52.350;6.684;2024-03-02T04:03:32;2.33;;;1.48;;
19339;SDS011;9804;52.350;6.684;2024-03-02T04:05:58;4.13;;;1.65;;
19339;SDS011;9804;52.350;6.684;2024-03-02T04:08:23;4.22;;;1.67;;
19339;SDS011;9804;52.350;6.684;2024-03-02T04:10:48;4.78;;;1.90;;
19339;SDS011;9804;52.350;6.684;2024-03-02T04:13:14;3.97;;;1.73;;
19339;SDS011;9804;52.350;6.684;2024-03-02T04:15:39;4.78;;;2.00;;
19339;SDS011;9804;52.350;6.684;2024-03-02T04:18:08;4.60;;;1.98;;
19339;SDS011;9804;52.350;6.684;2024-03-02T04:20:33;3.55;;;1.83;;
19339;SDS011;9804;52.350;6.684;2024-03-02T04:22:59;4.43;;;1.75;;
19339;SDS011;9804;52.350;6.684;2024-03-02T04:25:24;2.75;;;1.60;;
19339;SDS011;9804;52.350;6.684;2024-03-02T04:27:49;4.03;;;1.77;;
19339;SDS011;9804;52.350;6.684;2024-03-02T04:30:15;3.42;;;1.67;;
19339;SDS011;9804;52.350;6.684;2024-03-02T04:32:40;3.28;;;1.45;;
19339;SDS011;9804;52.350;6.684;2024-03-02T04:35:06;2.25;;;1.33;;
19339;SDS011;9804;52.350;6.684;2024-03-02T04:37:35;1.77;;;1.00;;
19339;SDS011;9804;52.350;6.684;2024-03-02T04:40:00;2.22;;;1.25;;
19339;SDS011;9804;52.350;6.684;2024-03-02T04:42:26;2.45;;;1.00;;
19339;SDS011;9804;52.350;6.684;2024-03-02T04:44:51;1.73;;;0.90;;
19339;SDS011;9804;52.350;6.684;2024-03-02T04:47:17;1.88;;;0.82;;
19339;SDS011;9804;52.350;6.684;2024-03-02T04:49:42;6.32;;;1.05;;
19339;SDS011;9804;52.350;6.684;2024-03-02T04:52:08;2.00;;;0.80;;
19339;SDS011;9804;52.350;6.684;2024-03-02T04:54:34;2.25;;;0.80;;
19339;SDS011;9804;52.350;6.684;2024-03-02T04:57:19;3.53;;;0.70;;
19339;SDS011;9804;52.350;6.684;2024-03-02T04:59:45;2.05;;;0.95;;
19339;SDS011;9804;52.350;6.684;2024-03-02T05:02:11;1.85;;;0.77;;
19339;SDS011;9804;52.350;6.684;2024-03-02T05:04:39;4.20;;;0.85;;
19339;SDS011;9804;52.350;6.684;2024-03-02T05:07:05;1.70;;;0.73;;
19339;SDS011;9804;52.350;6.684;2024-03-02T05:09:30;1.90;;;0.60;;
19339;SDS011;9804;52.350;6.684;2024-03-02T05:11:57;1.88;;;0.88;;
19339;SDS011;9804;52.350;6.684;2024-03-02T05:14:41;1.08;;;0.52;;
19339;SDS011;9804;52.350;6.684;2024-03-02T05:17:06;0.80;;;0.60;;
19339;SDS011;9804;52.350;6.684;2024-03-02T05:19:32;1.15;;;0.60;;
19339;SDS011;9804;52.350;6.684;2024-03-02T05:21:57;1.35;;;0.55;;
19339;SDS011;9804;52.350;6.684;2024-03-02T05:24:23;0.55;;;0.43;;
19339;SDS011;9804;52.350;6.684;2024-03-02T05:26:48;3.25;;;0.80;;
19339;SDS011;9804;52.350;6.684;2024-03-02T05:29:14;3.42;;;0.80;;
19339;SDS011;9804;52.350;6.684;2024-03-02T05:31:40;2.20;;;0.70;;
19339;SDS011;9804;52.350;6.684;2024-03-02T05:34:05;1.88;;;0.63;;
19339;SDS011;9804;52.350;6.684;2024-03-02T05:36:31;2.33;;;0.80;;
19339;SDS011;9804;52.350;6.684;2024-03-02T05:38:57;2.05;;;0.57;;
19339;SDS011;9804;52.350;6.684;2024-03-02T05:41:22;1.75;;;0.70;;
19339;SDS011;9804;52.350;6.684;2024-03-02T05:43:48;2.63;;;0.45;;
19339;SDS011;9804;52.350;6.684;2024-03-02T05:46:14;1.08;;;0.50;;
19339;SDS011;9804;52.350;6.684;2024-03-02T05:48:40;2.75;;;0.60;;
19339;SDS011;9804;52.350;6.684;2024-03-02T05:51:05;1.83;;;0.30;;
19339;SDS011;9804;52.350;6.684;2024-03-02T05:53:31;0.82;;;0.57;;
19339;SDS011;9804;52.350;6.684;2024-03-02T05:55:56;0.85;;;0.50;;
19339;SDS011;9804;52.350;6.684;2024-03-02T05:58:22;0.50;;;0.30;;
19339;SDS011;9804;52.350;6.684;2024-03-02T06:01:22;2.15;;;0.50;;
19339;SDS011;9804;52.350;6.684;2024-03-02T06:03:53;1.23;;;0.55;;
19339;SDS011;9804;52.350;6.684;2024-03-02T06:06:20;2.72;;;0.47;;
19339;SDS011;9804;52.350;6.684;2024-03-02T06:08:46;0.93;;;0.40;;
19339;SDS011;9804;52.350;6.684;2024-03-02T06:11:11;0.90;;;0.50;;
19339;SDS011;9804;52.350;6.684;2024-03-02T06:13:37;0.93;;;0.38;;
19339;SDS011;9804;52.350;6.684;2024-03-02T06:16:02;2.85;;;0.30;;
19339;SDS011;9804;52.350;6.684;2024-03-02T06:18:28;0.77;;;0.30;;
19339;SDS011;9804;52.350;6.684;2024-03-02T06:20:54;0.60;;;0.25;;
19339;SDS011;9804;52.350;6.684;2024-03-02T06:23:19;0.77;;;0.40;;
19339;SDS011;9804;52.350;6.684;2024-03-02T06:25:45;1.30;;;0.52;;
19339;SDS011;9804;52.350;6.684;2024-03-02T06:28:10;1.30;;;0.43;;
19339;SDS011;9804;52.350;6.684;2024-03-02T06:30:36;0.95;;;0.50;;
19339;SDS011;9804;52.350;6.684;2024-03-02T06:33:01;0.55;;;0.50;;
19339;SDS011;9804;52.350;6.684;2024-03-02T06:35:28;3.05;;;0.50;;
19339;SDS011;9804;52.350;6.684;2024-03-02T06:37:54;1.65;;;0.45;;
19339;SDS011;9804;52.350;6.684;2024-03-02T06:40:19;3.08;;;0.52;;
19339;SDS011;9804;52.350;6.684;2024-03-02T06:42:46;1.10;;;0.65;;
19339;SDS011;9804;52.350;6.684;2024-03-02T06:45:11;0.88;;;0.65;;
19339;SDS011;9804;52.350;6.684;2024-03-02T06:47:37;2.17;;;0.80;;
19339;SDS011;9804;52.350;6.684;2024-03-02T06:50:02;1.70;;;0.57;;
19339;SDS011;9804;52.350;6.684;2024-03-02T06:52:28;2.80;;;0.50;;
19339;SDS011;9804;52.350;6.684;2024-03-02T06:54:53;1.67;;;0.50;;
19339;SDS011;9804;52.350;6.684;2024-03-02T06:57:19;0.97;;;0.50;;
19339;SDS011;9804;52.350;6.684;2024-03-02T06:59:45;3.50;;;0.50;;
19339;SDS011;9804;52.350;6.684;2024-03-02T07:02:11;1.98;;;0.50;;
19339;SDS011;9804;52.350;6.684;2024-03-02T07:04:37;1.88;;;0.50;;
19339;SDS011;9804;52.350;6.684;2024-03-02T07:07:03;2.22;;;0.60;;
19339;SDS011;9804;52.350;6.684;2024-03-02T07:09:28;1.00;;;0.40;;
19339;SDS011;9804;52.350;6.684;2024-03-02T07:11:54;1.45;;;0.52;;
19339;SDS011;9804;52.350;6.684;2024-03-02T07:14:19;2.03;;;0.43;;
19339;SDS011;9804;52.350;6.684;2024-03-02T07:16:45;0.82;;;0.43;;
19339;SDS011;9804;52.350;6.684;2024-03-02T07:19:10;1.92;;;0.73;;
19339;SDS011;9804;52.350;6.684;2024-03-02T07:21:36;2.08;;;1.13;;
19339;SDS011;9804;52.350;6.684;2024-03-02T07:24:01;2.17;;;1.00;;
19339;SDS011;9804;52.350;6.684;2024-03-02T07:26:30;1.60;;;1.00;;
19339;SDS011;9804;52.350;6.684;2024-03-02T07:28:56;3.45;;;1.40;;
19339;SDS011;9804;52.350;6.684;2024-03-02T07:31:22;1.73;;;0.90;;
19339;SDS011;9804;52.350;6.684;2024-03-02T07:33:47;2.25;;;1.05;;
19339;SDS011;9804;52.350;6.684;2024-03-02T07:36:13;1.83;;;0.90;;
19339;SDS011;9804;52.350;6.684;2024-03-02T07:38:39;1.73;;;0.73;;
19339;SDS011;9804;52.350;6.684;2024-03-02T07:41:05;3.00;;;0.60;;
19339;SDS011;9804;52.350;6.684;2024-03-02T07:43:31;1.70;;;0.70;;
19339;SDS011;9804;52.350;6.684;2024-03-02T07:45:58;1.30;;;0.63;;
19339;SDS011;9804;52.350;6.684;2024-03-02T07:48:23;3.65;;;0.82;;
19339;SDS011;9804;52.350;6.684;2024-03-02T07:50:50;1.33;;;0.60;;
19339;SDS011;9804;52.350;6.684;2024-03-02T07:53:15;1.63;;;0.60;;
19339;SDS011;9804;52.350;6.684;2024-03-02T07:55:41;2.67;;;0.70;;
19339;SDS011;9804;52.350;6.684;2024-03-02T07:58:06;2.03;;;0.50;;
19339;SDS011;9804;52.350;6.684;2024-03-02T08:00:32;1.33;;;0.80;;
19339;SDS011;9804;52.350;6.684;2024-03-02T08:02:58;0.70;;;0.60;;
19339;SDS011;9804;52.350;6.684;2024-03-02T08:05:23;0.90;;;0.63;;
19339;SDS011;9804;52.350;6.684;2024-03-02T08:07:49;1.58;;;0.80;;
19339;SDS011;9804;52.350;6.684;2024-03-02T08:10:17;2.33;;;0.80;;
19339;SDS011;9804;52.350;6.684;2024-03-02T08:12:44;1.98;;;0.70;;
19339;SDS011;9804;52.350;6.684;2024-03-02T08:15:09;1.58;;;0.80;;
19339;SDS011;9804;52.350;6.684;2024-03-02T08:17:36;2.08;;;0.80;;
19339;SDS011;9804;52.350;6.684;2024-03-02T08:20:01;1.38;;;0.70;;
19339;SDS011;9804;52.350;6.684;2024-03-02T08:22:27;2.17;;;0.80;;
19339;SDS011;9804;52.350;6.684;2024-03-02T08:24:53;6.00;;;1.50;;
19339;SDS011;9804;52.350;6.684;2024-03-02T08:27:19;1.98;;;1.25;;
19339;SDS011;9804;52.350;6.684;2024-03-02T08:29:45;4.18;;;1.40;;
19339;SDS011;9804;52.350;6.684;2024-03-02T08:32:10;1.38;;;1.20;;
19339;SDS011;9804;52.350;6.684;2024-03-02T08:34:36;3.05;;;1.23;;
19339;SDS011;9804;52.350;6.684;2024-03-02T08:37:02;3.25;;;1.88;;
19339;SDS011;9804;52.350;6.684;2024-03-02T08:39:27;4.10;;;1.80;;
19339;SDS011;9804;52.350;6.684;2024-03-02T08:41:53;2.53;;;1.70;;
19339;SDS011;9804;52.350;6.684;2024-03-02T08:44:19;5.82;;;1.70;;
19339;SDS011;9804;52.350;6.684;2024-03-02T08:46:45;2.97;;;2.00;;
19339;SDS011;9804;52.350;6.684;2024-03-02T08:49:11;4.32;;;1.90;;
19339;SDS011;9804;52.350;6.684;2024-03-02T08:51:37;3.47;;;1.63;;
19339;SDS011;9804;52.350;6.684;2024-03-02T08:54:02;5.32;;;1.48;;
19339;SDS011;9804;52.350;6.684;2024-03-02T08:56:29;2.70;;;1.75;;
19339;SDS011;9804;52.350;6.684;2024-03-02T08:58:55;2.70;;;1.60;;
19339;SDS011;9804;52.350;6.684;2024-03-02T09:01:20;2.30;;;1.60;;
19339;SDS011;9804;52.350;6.684;2024-03-02T09:03:46;4.88;;;1.50;;
19339;SDS011;9804;52.350;6.684;2024-03-02T09:06:12;2.80;;;1.23;;
19339;SDS011;9804;52.350;6.684;2024-03-02T09:08:38;1.90;;;1.25;;
19339;SDS011;9804;52.350;6.684;2024-03-02T09:11:05;5.88;;;1.45;;
19339;SDS011;9804;52.350;6.684;2024-03-02T09:13:31;3.00;;;1.38;;
19339;SDS011;9804;52.350;6.684;2024-03-02T09:15:57;2.42;;;1.00;;
19339;SDS011;9804;52.350;6.684;2024-03-02T09:18:23;3.00;;;0.90;;
19339;SDS011;9804;52.350;6.684;2024-03-02T09:20:48;4.07;;;1.38;;
19339;SDS011;9804;52.350;6.684;2024-03-02T09:23:14;4.15;;;1.08;;
19339;SDS011;9804;52.350;6.684;2024-03-02T09:25:39;2.58;;;1.10;;
19339;SDS011;9804;52.350;6.684;2024-03-02T09:28:05;4.22;;;1.10;;
19339;SDS011;9804;52.350;6.684;2024-03-02T09:30:32;5.72;;;1.45;;
19339;SDS011;9804;52.350;6.684;2024-03-02T09:32:57;3.40;;;1.08;;
19339;SDS011;9804;52.350;6.684;2024-03-02T09:35:23;36.40;;;3.67;;
19339;SDS011;9804;52.350;6.684;2024-03-02T09:37:49;12.88;;;1.83;;
19339;SDS011;9804;52.350;6.684;2024-03-02T09:40:14;2.78;;;1.30;;
19339;SDS011;9804;52.350;6.684;2024-03-02T09:42:41;3.42;;;1.30;;
19339;SDS011;9804;52.350;6.684;2024-03-02T09:45:08;5.47;;;0.90;;
19339;SDS011;9804;52.350;6.684;2024-03-02T09:47:34;1.27;;;1.08;;
19339;SDS011;9804;52.350;6.684;2024-03-02T09:50:00;3.55;;;1.38;;
19339;SDS011;9804;52.350;6.684;2024-03-02T09:52:25;2.35;;;1.15;;
19339;SDS011;9804;52.350;6.684;2024-03-02T09:54:51;5.18;;;1.20;;
19339;SDS011;9804;52.350;6.684;2024-03-02T09:57:16;2.95;;;1.20;;
19339;SDS011;9804;52.350;6.684;2024-03-02T09:59:42;2.72;;;0.95;;
19339;SDS011;9804;52.350;6.684;2024-03-02T10:02:07;1.55;;;1.05;;
19339;SDS011;9804;52.350;6.684;2024-03-02T10:04:33;1.88;;;1.40;;
19339;SDS011;9804;52.350;6.684;2024-03-02T10:09:42;2.33;;;1.52;;
19339;SDS011;9804;52.350;6.684;2024-03-02T10:12:13;4.40;;;1.48;;
19339;SDS011;9804;52.350;6.684;2024-03-02T10:14:40;2.42;;;1.33;;
19339;SDS011;9804;52.350;6.684;2024-03-02T10:17:13;3.28;;;2.00;;
19339;SDS011;9804;52.350;6.684;2024-03-02T10:19:40;3.97;;;1.92;;
19339;SDS011;9804;52.350;6.684;2024-03-02T10:22:06;3.40;;;1.60;;
19339;SDS011;9804;52.350;6.684;2024-03-02T10:24:40;3.38;;;1.95;;
19339;SDS011;9804;52.350;6.684;2024-03-02T10:27:07;3.38;;;2.13;;
19339;SDS011;9804;52.350;6.684;2024-03-02T10:29:36;2.78;;;1.70;;
19339;SDS011;9804;52.350;6.684;2024-03-02T10:32:05;2.42;;;1.38;;
19339;SDS011;9804;52.350;6.684;2024-03-02T10:34:33;6.07;;;1.33;;
19339;SDS011;9804;52.350;6.684;2024-03-02T10:36:59;2.17;;;1.40;;
19339;SDS011;9804;52.350;6.684;2024-03-02T10:39:25;4.32;;;1.20;;
19339;SDS011;9804;52.350;6.684;2024-03-02T10:41:51;3.25;;;1.13;;
19339;SDS011;9804;52.350;6.684;2024-03-02T10:44:17;3.22;;;1.35;;
19339;SDS011;9804;52.350;6.684;2024-03-02T10:46:43;2.95;;;1.15;;
19339;SDS011;9804;52.350;6.684;2024-03-02T10:49:11;2.92;;;1.55;;
19339;SDS011;9804;52.350;6.684;2024-03-02T10:51:36;2.50;;;0.95;;
19339;SDS011;9804;52.350;6.684;2024-03-02T10:54:02;2.75;;;0.90;;
19339;SDS011;9804;52.350;6.684;2024-03-02T11:01:51;4.55;;;0.98;;
19339;SDS011;9804;52.350;6.684;2024-03-02T11:04:21;4.82;;;0.80;;
19339;SDS011;9804;52.350;6.684;2024-03-02T11:06:49;3.75;;;0.93;;
19339;SDS011;9804;52.350;6.684;2024-03-02T11:09:18;2.42;;;0.60;;
19339;SDS011;9804;52.350;6.684;2024-03-02T11:11:48;2.28;;;0.63;;
19339;SDS011;9804;52.350;6.684;2024-03-02T11:14:21;2.50;;;0.80;;
19339;SDS011;9804;52.350;6.684;2024-03-02T11:16:50;2.90;;;1.17;;
19339;SDS011;9804;52.350;6.684;2024-03-02T11:19:16;2.95;;;1.27;;
19339;SDS011;9804;52.350;6.684;2024-03-02T11:21:42;2.03;;;1.08;;
19339;SDS011;9804;52.350;6.684;2024-03-02T11:26:49;2.35;;;1.10;;
19339;SDS011;9804;52.350;6.684;2024-03-02T11:32:05;3.55;;;1.50;;
19339;SDS011;9804;52.350;6.684;2024-03-02T11:34:32;3.58;;;1.33;;
19339;SDS011;9804;52.350;6.684;2024-03-02T11:37:01;2.22;;;1.40;;
19339;SDS011;9804;52.350;6.684;2024-03-02T11:39:28;4.57;;;1.17;;
19339;SDS011;9804;52.350;6.684;2024-03-02T11:41:54;7.30;;;1.38;;
19339;SDS011;9804;52.350;6.684;2024-03-02T11:44:20;2.47;;;1.00;;
19339;SDS011;9804;52.350;6.684;2024-03-02T11:46:51;4.30;;;1.35;;
19339;SDS011;9804;52.350;6.684;2024-03-02T11:52:10;2.95;;;1.00;;
19339;SDS011;9804;52.350;6.684;2024-03-02T11:54:38;2.83;;;1.63;;
19339;SDS011;9804;52.350;6.684;2024-03-02T11:57:07;3.17;;;1.65;;
19339;SDS011;9804;52.350;6.684;2024-03-02T11:59:33;3.70;;;1.67;;
19339;SDS011;9804;52.350;6.684;2024-03-02T12:01:59;3.00;;;1.17;;
19339;SDS011;9804;52.350;6.684;2024-03-02T12:04:25;2.15;;;1.33;;
19339;SDS011;9804;52.350;6.684;2024-03-02T12:07:09;1.35;;;0.80;;
19339;SDS011;9804;52.350;6.684;2024-03-02T12:09:35;1.25;;;1.13;;
19339;SDS011;9804;52.350;6.684;2024-03-02T12:12:01;2.65;;;1.13;;
19339;SDS011;9804;52.350;6.684;2024-03-02T12:14:31;2.22;;;1.17;;
19339;SDS011;9804;52.350;6.684;2024-03-02T12:16:57;4.32;;;1.20;;
19339;SDS011;9804;52.350;6.684;2024-03-02T12:19:26;1.27;;;0.80;;
19339;SDS011;9804;52.350;6.684;2024-03-02T12:21:56;1.73;;;1.20;;
19339;SDS011;9804;52.350;6.684;2024-03-02T12:24:22;2.70;;;1.20;;
19339;SDS011;9804;52.350;6.684;2024-03-02T12:26:49;3.72;;;1.85;;
19339;SDS011;9804;52.350;6.684;2024-03-02T12:29:15;3.08;;;1.45;;
19339;SDS011;9804;52.350;6.684;2024-03-02T12:31:44;3.42;;;1.90;;
19339;SDS011;9804;52.350;6.684;2024-03-02T12:34:13;3.55;;;1.77;;
19339;SDS011;9804;52.350;6.684;2024-03-02T12:36:40;3.15;;;1.90;;
19339;SDS011;9804;52.350;6.684;2024-03-02T12:39:07;6.35;;;2.40;;
19339;SDS011;9804;52.350;6.684;2024-03-02T12:41:35;4.18;;;2.20;;
19339;SDS011;9804;52.350;6.684;2024-03-02T12:44:02;3.47;;;2.22;;
19339;SDS011;9804;52.350;6.684;2024-03-02T12:46:28;3.40;;;1.80;;
19339;SDS011;9804;52.350;6.684;2024-03-02T12:48:53;4.10;;;1.98;;
19339;SDS011;9804;52.350;6.684;2024-03-02T12:51:19;3.33;;;1.77;;
19339;SDS011;9804;52.350;6.684;2024-03-02T12:53:44;4.63;;;2.03;;
19339;SDS011;9804;52.350;6.684;2024-03-02T12:56:10;2.97;;;1.73;;
19339;SDS011;9804;52.350;6.684;2024-03-02T12:58:39;3.70;;;2.28;;
19339;SDS011;9804;52.350;6.684;2024-03-02T13:01:07;2.50;;;1.45;;
19339;SDS011;9804;52.350;6.684;2024-03-02T13:03:40;2.90;;;1.55;;
19339;SDS011;9804;52.350;6.684;2024-03-02T13:06:06;5.10;;;1.90;;
19339;SDS011;9804;52.350;6.684;2024-03-02T13:08:32;1.85;;;1.38;;
19339;SDS011;9804;52.350;6.684;2024-03-02T13:10:58;1.80;;;1.30;;
19339;SDS011;9804;52.350;6.684;2024-03-02T13:13:24;2.58;;;1.23;;
19339;SDS011;9804;52.350;6.684;2024-03-02T13:15:49;3.60;;;1.20;;
19339;SDS011;9804;52.350;6.684;2024-03-02T13:18:17;3.50;;;1.45;;
19339;SDS011;9804;52.350;6.684;2024-03-02T13:20:43;3.45;;;1.52;;
19339;SDS011;9804;52.350;6.684;2024-03-02T13:23:08;1.38;;;1.10;;
19339;SDS011;9804;52.350;6.684;2024-03-02T13:25:35;4.72;;;1.77;;
19339;SDS011;9804;52.350;6.684;2024-03-02T13:28:01;2.60;;;1.10;;
19339;SDS011;9804;52.350;6.684;2024-03-02T13:30:27;3.08;;;1.35;;
19339;SDS011;9804;52.350;6.684;2024-03-02T13:32:52;2.25;;;0.85;;
19339;SDS011;9804;52.350;6.684;2024-03-02T13:35:19;5.68;;;1.25;;
19339;SDS011;9804;52.350;6.684;2024-03-02T13:37:44;3.20;;;1.10;;
19339;SDS011;9804;52.350;6.684;2024-03-02T13:40:09;2.90;;;1.13;;
19339;SDS011;9804;52.350;6.684;2024-03-02T13:42:39;3.88;;;1.25;;
19339;SDS011;9804;52.350;6.684;2024-03-02T13:45:05;4.05;;;1.40;;
19339;SDS011;9804;52.350;6.684;2024-03-02T13:47:31;2.92;;;1.30;;
19339;SDS011;9804;52.350;6.684;2024-03-02T13:49:57;2.47;;;0.90;;
19339;SDS011;9804;52.350;6.684;2024-03-02T13:52:23;1.70;;;1.10;;
19339;SDS011;9804;52.350;6.684;2024-03-02T13:54:51;2.10;;;0.95;;
19339;SDS011;9804;52.350;6.684;2024-03-02T13:57:17;2.03;;;1.17;;
19339;SDS011;9804;52.350;6.684;2024-03-02T13:59:45;2.30;;;0.90;;
19339;SDS011;9804;52.350;6.684;2024-03-02T14:02:11;7.10;;;1.00;;
19339;SDS011;9804;52.350;6.684;2024-03-02T14:04:37;3.50;;;1.35;;
19339;SDS011;9804;52.350;6.684;2024-03-02T14:07:05;3.33;;;1.00;;
19339;SDS011;9804;52.350;6.684;2024-03-02T14:09:35;2.40;;;1.27;;
19339;SDS011;9804;52.350;6.684;2024-03-02T14:12:01;1.60;;;1.08;;
19339;SDS011;9804;52.350;6.684;2024-03-02T14:14:27;2.50;;;1.00;;
19339;SDS011;9804;52.350;6.684;2024-03-02T14:16:54;1.35;;;0.80;;
19339;SDS011;9804;52.350;6.684;2024-03-02T14:19:21;2.45;;;0.88;;
19339;SDS011;9804;52.350;6.684;2024-03-02T14:21:47;2.85;;;0.88;;
19339;SDS011;9804;52.350;6.684;2024-03-02T14:24:13;2.92;;;1.10;;
19339;SDS011;9804;52.350;6.684;2024-03-02T14:26:38;3.83;;;1.40;;
19339;SDS011;9804;52.350;6.684;2024-03-02T14:29:04;3.70;;;1.10;;
19339;SDS011;9804;52.350;6.684;2024-03-02T14:31:30;1.45;;;0.75;;
19339;SDS011;9804;52.350;6.684;2024-03-02T14:33:58;1.67;;;0.88;;
19339;SDS011;9804;52.350;6.684;2024-03-02T14:36:25;5.10;;;0.90;;
19339;SDS011;9804;52.350;6.684;2024-03-02T14:38:52;2.90;;;1.20;;
19339;SDS011;9804;52.350;6.684;2024-03-02T14:41:18;2.72;;;1.20;;
19339;SDS011;9804;52.350;6.684;2024-03-02T14:43:43;4.50;;;0.90;;
19339;SDS011;9804;52.350;6.684;2024-03-02T14:46:09;1.65;;;0.90;;
19339;SDS011;9804;52.350;6.684;2024-03-02T14:48:38;2.63;;;1.00;;
19339;SDS011;9804;52.350;6.684;2024-03-02T14:51:04;2.22;;;1.10;;
19339;SDS011;9804;52.350;6.684;2024-03-02T14:53:30;3.45;;;1.30;;
19339;SDS011;9804;52.350;6.684;2024-03-02T14:55:55;1.80;;;0.93;;
19339;SDS011;9804;52.350;6.684;2024-03-02T14:58:21;3.63;;;1.08;;
19339;SDS011;9804;52.350;6.684;2024-03-02T15:00:46;2.33;;;1.00;;
19339;SDS011;9804;52.350;6.684;2024-03-02T15:03:12;2.05;;;1.02;;
19339;SDS011;9804;52.350;6.684;2024-03-02T15:05:37;2.00;;;1.00;;
19339;SDS011;9804;52.350;6.684;2024-03-02T15:08:04;4.90;;;1.00;;
19339;SDS011;9804;52.350;6.684;2024-03-02T15:10:30;2.05;;;0.80;;
19339;SDS011;9804;52.350;6.684;2024-03-02T15:12:56;2.83;;;1.05;;
19339;SDS011;9804;52.350;6.684;2024-03-02T15:15:22;2.45;;;0.80;;
19339;SDS011;9804;52.350;6.684;2024-03-02T15:17:48;2.13;;;0.60;;